createdAt,value
2019-03-28T00:02:05.132Z,11.03
2019-03-28T00:04:37.639Z,10.53
2019-03-28T00:07:10.454Z,13.90
2019-03-28T00:09:43.018Z,12.63
2019-03-28T00:12:15.493Z,11.43
2019-03-28T00:14:47.992Z,9.37
2019-03-28T00:17:20.468Z,9.13
2019-03-28T00:19:53.591Z,9.55
2019-03-28T00:22:35.492Z,9.85
2019-03-28T00:25:11.588Z,10.47
2019-03-28T00:27:44.066Z,9.80
2019-03-28T00:30:19.245Z,9.10
2019-03-28T00:32:52.384Z,11.60
2019-03-28T00:35:25.055Z,10.97
2019-03-28T00:37:57.863Z,11.90
2019-03-28T00:40:30.653Z,10.57
2019-03-28T00:43:03.134Z,9.50
2019-03-28T00:45:35.662Z,8.43
2019-03-28T00:48:08.231Z,12.20
2019-03-28T00:50:40.687Z,11.67
2019-03-28T00:53:13.170Z,10.83
2019-03-28T00:55:45.760Z,12.65
2019-03-28T00:58:18.243Z,10.37
2019-03-28T01:00:50.795Z,8.97
2019-03-28T01:03:23.378Z,11.60
2019-03-28T01:05:56.168Z,9.57
2019-03-28T01:08:28.911Z,8.23
2019-03-28T01:11:01.390Z,7.50
2019-03-28T01:13:33.957Z,10.07
2019-03-28T01:16:06.462Z,10.80
2019-03-28T01:18:39.199Z,11.73
2019-03-28T01:21:11.733Z,11.10
2019-03-28T01:23:44.218Z,14.03
2019-03-28T01:26:16.684Z,11.90
2019-03-28T01:28:49.445Z,13.93
2019-03-28T01:31:21.912Z,14.40
2019-03-28T01:33:54.397Z,12.93
2019-03-28T01:36:26.859Z,12.37
2019-03-28T01:38:59.334Z,11.30
2019-03-28T01:41:31.799Z,12.87
2019-03-28T01:44:04.290Z,10.00
2019-03-28T01:46:37.043Z,10.73
2019-03-28T01:49:10.178Z,12.30
2019-03-28T01:51:43.017Z,11.00
2019-03-28T01:54:15.506Z,11.77
2019-03-28T01:56:47.993Z,13.33
2019-03-28T01:59:21.223Z,10.70
2019-03-28T02:01:53.825Z,11.13
2019-03-28T02:04:26.728Z,11.50
2019-03-28T02:06:59.536Z,9.67
2019-03-28T02:09:32.403Z,10.10
2019-03-28T02:12:05.421Z,11.67
2019-03-28T02:14:38.366Z,11.57
2019-03-28T02:17:11.093Z,12.73
2019-03-28T02:19:43.828Z,14.80
2019-03-28T02:22:16.301Z,12.17
2019-03-28T02:24:49.179Z,10.53
2019-03-28T02:27:24.374Z,11.90
2019-03-28T02:29:56.165Z,11.50
2019-03-28T02:32:28.902Z,12.67
2019-03-28T02:35:01.386Z,11.93
2019-03-28T02:37:33.880Z,10.60
2019-03-28T02:40:07.342Z,12.50
2019-03-28T02:42:40.220Z,10.97
2019-03-28T02:45:12.875Z,14.93
2019-03-28T02:47:45.363Z,15.03
2019-03-28T02:50:17.841Z,16.30
2019-03-28T02:52:50.317Z,11.27
2019-03-28T02:55:23.705Z,11.33
2019-03-28T02:57:56.266Z,11.00
2019-03-28T03:00:29.120Z,12.57
2019-03-28T03:03:01.600Z,13.17
2019-03-28T03:05:34.174Z,13.93
2019-03-28T03:08:07.895Z,13.93
2019-03-28T03:10:40.537Z,12.20
2019-03-28T03:13:13.319Z,11.73
2019-03-28T03:15:45.828Z,10.90
2019-03-28T03:18:21.401Z,11.88
2019-03-28T03:20:52.571Z,11.17
2019-03-28T03:23:25.184Z,10.65
2019-03-28T03:25:57.676Z,13.77
2019-03-28T03:28:30.155Z,9.73
2019-03-28T03:31:02.757Z,12.80
2019-03-28T03:33:37.064Z,13.60
2019-03-28T03:36:09.509Z,10.37
2019-03-28T03:38:41.986Z,11.27
2019-03-28T03:41:14.490Z,16.97
2019-03-28T03:43:47.423Z,13.50
2019-03-28T03:46:20.072Z,11.12
2019-03-28T03:48:52.564Z,16.07
2019-03-28T03:51:25.077Z,11.90
2019-03-28T03:53:57.629Z,12.83
2019-03-28T03:56:30.612Z,9.27
2019-03-28T03:59:03.247Z,10.43
2019-03-28T04:01:35.895Z,11.77
2019-03-28T04:04:08.596Z,10.43
2019-03-28T04:06:41.539Z,14.03
2019-03-28T04:09:14.605Z,9.63
2019-03-28T04:11:47.269Z,13.63
2019-03-28T04:14:19.807Z,10.43
2019-03-28T04:16:52.467Z,11.27
2019-03-28T04:19:25.028Z,11.80
2019-03-28T04:21:58.042Z,13.40
2019-03-28T04:24:30.688Z,14.20
2019-03-28T04:27:03.243Z,13.67
2019-03-28T04:29:35.778Z,17.97
2019-03-28T04:32:08.339Z,14.43
2019-03-28T04:34:40.888Z,13.62
2019-03-28T04:37:13.816Z,12.27
2019-03-28T04:39:46.416Z,17.93
2019-03-28T04:42:18.989Z,14.17
2019-03-28T04:44:51.934Z,12.07
2019-03-28T04:47:24.904Z,10.15
2019-03-28T04:49:57.565Z,13.23
2019-03-28T04:52:31.992Z,12.47
2019-03-28T04:55:05.222Z,12.90
2019-03-28T04:57:41.064Z,10.60
2019-03-28T05:00:13.755Z,11.00
2019-03-28T05:02:46.419Z,12.87
2019-03-28T05:05:19.110Z,12.40
2019-03-28T05:07:52.020Z,14.53
2019-03-28T05:10:24.755Z,11.00
2019-03-28T05:12:57.318Z,13.37
2019-03-28T05:15:30.096Z,12.27
2019-03-28T05:18:02.720Z,12.03
2019-03-28T05:20:35.618Z,13.40
2019-03-28T05:23:08.272Z,13.77
2019-03-28T05:25:41.045Z,10.53
2019-03-28T05:28:13.848Z,12.03
2019-03-28T05:30:46.449Z,12.20
2019-03-28T05:33:19.099Z,12.18
2019-03-28T05:35:52.293Z,9.57
2019-03-28T05:38:26.035Z,15.08
2019-03-28T05:40:58.660Z,12.57
2019-03-28T05:43:31.310Z,13.95
2019-03-28T05:46:03.850Z,13.10
2019-03-28T05:48:36.483Z,13.63
2019-03-28T05:51:09.176Z,9.60
2019-03-28T05:53:43.999Z,12.33
2019-03-28T05:56:17.224Z,12.13
2019-03-28T05:58:50.159Z,11.57
2019-03-28T06:01:23.402Z,12.37
2019-03-28T06:03:56.358Z,10.57
2019-03-28T06:06:28.996Z,14.90
2019-03-28T06:09:01.614Z,10.83
2019-03-28T06:11:34.706Z,11.20
2019-03-28T06:14:07.402Z,13.13
2019-03-28T06:16:40.033Z,12.83
2019-03-28T06:19:12.746Z,22.70
2019-03-28T06:21:45.286Z,10.20
2019-03-28T06:24:18.179Z,12.67
2019-03-28T06:26:50.883Z,14.20
2019-03-28T06:29:24.491Z,13.73
2019-03-28T06:31:57.819Z,12.73
2019-03-28T06:34:31.597Z,16.47
2019-03-28T06:37:04.227Z,10.03
2019-03-28T06:39:36.845Z,12.60
2019-03-28T06:42:09.516Z,13.23
2019-03-28T06:44:42.060Z,15.67
2019-03-28T06:47:14.754Z,15.17
2019-03-28T06:49:47.314Z,12.67
2019-03-28T06:52:19.951Z,14.50
2019-03-28T06:54:52.896Z,15.17
2019-03-28T06:57:25.513Z,14.73
2019-03-28T06:59:58.186Z,12.70
2019-03-28T07:02:30.915Z,12.83
2019-03-28T07:05:03.531Z,14.50
2019-03-28T07:07:36.496Z,15.10
2019-03-28T07:10:10.606Z,13.60
2019-03-28T07:12:44.292Z,16.83
2019-03-28T07:15:18.009Z,13.10
2019-03-28T07:17:50.796Z,17.33
2019-03-28T07:20:23.807Z,13.33
2019-03-28T07:22:56.504Z,17.50
2019-03-28T07:25:29.136Z,14.77
2019-03-28T07:28:01.674Z,17.10
2019-03-28T07:30:34.304Z,18.27
2019-03-28T07:33:07.039Z,14.13
2019-03-28T07:35:39.669Z,14.97
2019-03-28T07:38:12.707Z,12.90
2019-03-28T07:40:45.427Z,13.57
2019-03-28T07:43:18.217Z,19.77
2019-03-28T07:45:50.864Z,16.13
2019-03-28T07:48:23.401Z,15.70
2019-03-28T07:50:56.044Z,11.77
2019-03-28T07:53:28.995Z,15.90
2019-03-28T07:56:01.732Z,12.73
2019-03-28T07:58:35.300Z,12.60
2019-03-28T08:01:09.196Z,12.43
2019-03-28T08:03:41.810Z,13.57
2019-03-28T08:06:14.436Z,14.00
2019-03-28T08:08:47.175Z,15.13
2019-03-28T08:11:19.843Z,18.45
2019-03-28T08:13:52.451Z,17.20
2019-03-28T08:16:28.603Z,15.93
2019-03-28T08:18:59.501Z,13.63
2019-03-28T08:21:32.137Z,10.40
2019-03-28T08:24:05.319Z,14.40
2019-03-28T08:26:38.048Z,10.00
2019-03-28T08:29:10.658Z,11.43
2019-03-28T08:31:45.795Z,13.90
2019-03-28T08:34:18.694Z,10.25
2019-03-28T08:36:53.388Z,9.43
2019-03-28T08:39:26.185Z,14.93
2019-03-28T08:41:58.817Z,13.77
2019-03-28T08:44:31.455Z,9.50
2019-03-28T08:47:06.210Z,12.37
2019-03-28T08:49:38.413Z,9.87
2019-03-28T08:52:11.925Z,9.73
2019-03-28T08:54:44.749Z,9.57
2019-03-28T08:57:17.309Z,10.60
2019-03-28T08:59:50.392Z,11.93
2019-03-28T09:02:23.096Z,13.85
2019-03-28T09:04:55.742Z,11.00
2019-03-28T09:07:28.382Z,11.78
2019-03-28T09:10:00.915Z,13.73
2019-03-28T09:12:35.118Z,9.77
2019-03-28T09:15:08.868Z,11.23
2019-03-28T09:17:41.544Z,10.00
2019-03-28T09:20:14.459Z,9.50
2019-03-28T09:22:47.077Z,12.93
2019-03-28T09:25:19.734Z,15.60
2019-03-28T09:27:52.588Z,16.57
2019-03-28T09:30:49.349Z,11.33
2019-03-28T09:33:19.444Z,13.38
2019-03-28T09:35:52.211Z,14.77
2019-03-28T09:38:25.032Z,12.37
2019-03-28T09:40:57.705Z,12.90
2019-03-28T09:43:30.262Z,14.43
2019-03-28T09:46:02.968Z,10.30
2019-03-28T09:48:35.598Z,11.53
2019-03-28T09:51:08.311Z,11.97
2019-03-28T09:53:41.032Z,12.43
2019-03-28T09:56:13.666Z,14.63
2019-03-28T09:58:46.382Z,10.80
2019-03-28T10:01:19.026Z,11.65
2019-03-28T10:03:51.977Z,15.33
2019-03-28T10:06:24.607Z,14.33
2019-03-28T10:08:57.284Z,14.73
2019-03-28T10:11:29.939Z,15.07
2019-03-28T10:14:02.601Z,13.27
2019-03-28T10:16:35.690Z,14.87
2019-03-28T10:19:08.565Z,13.93
2019-03-28T10:21:41.209Z,12.93
2019-03-28T10:24:13.927Z,12.03
2019-03-28T10:26:46.830Z,10.10
2019-03-28T10:29:19.732Z,10.03
2019-03-28T10:31:52.465Z,12.50
2019-03-28T10:34:25.174Z,10.43
2019-03-28T10:36:57.854Z,11.83
2019-03-28T10:39:30.918Z,11.83
2019-03-28T10:42:04.004Z,13.63
2019-03-28T10:44:36.688Z,11.67
2019-03-28T10:47:10.264Z,9.33
2019-03-28T10:49:42.975Z,9.83
2019-03-28T10:52:15.590Z,16.83
2019-03-28T10:54:48.289Z,11.10
2019-03-28T10:57:29.843Z,12.83
2019-03-28T10:59:55.405Z,11.23
2019-03-28T11:02:28.880Z,12.07
2019-03-28T11:05:01.751Z,12.00
2019-03-28T11:07:35.849Z,10.67
2019-03-28T11:10:09.060Z,10.33
2019-03-28T11:12:41.816Z,10.10
2019-03-28T11:15:15.831Z,9.77
2019-03-28T11:17:48.736Z,11.33
2019-03-28T11:20:21.419Z,12.45
2019-03-28T11:22:54.032Z,11.30
2019-03-28T11:25:26.692Z,13.72
2019-03-28T11:27:59.306Z,10.93
2019-03-28T11:30:32.566Z,11.37
2019-03-28T11:33:06.551Z,11.60
2019-03-28T11:35:39.852Z,12.07
2019-03-28T11:38:12.620Z,10.40
2019-03-28T11:40:45.291Z,11.40
2019-03-28T11:43:17.912Z,6.45
2019-03-28T11:45:50.834Z,7.97
2019-03-28T11:48:23.488Z,9.85
2019-03-28T11:50:56.240Z,7.10
2019-03-28T11:53:28.909Z,7.20
2019-03-28T11:56:01.577Z,10.53
2019-03-28T11:58:34.564Z,6.70
2019-03-28T12:01:07.669Z,5.80
2019-03-28T12:03:40.572Z,6.07
2019-03-28T12:06:13.242Z,7.73
2019-03-28T12:08:45.858Z,8.20
2019-03-28T12:11:18.514Z,8.30
2019-03-28T12:13:51.501Z,6.53
2019-03-28T12:16:24.161Z,8.27
2019-03-28T12:18:56.761Z,7.20
2019-03-28T12:21:29.671Z,8.47
2019-03-28T12:24:02.600Z,8.10
2019-03-28T12:26:35.262Z,7.87
2019-03-28T12:29:07.920Z,6.90
2019-03-28T12:31:40.586Z,4.77
2019-03-28T12:34:13.252Z,7.17
2019-03-28T12:36:46.153Z,7.87
2019-03-28T12:39:18.839Z,7.78
2019-03-28T12:41:51.569Z,7.87
2019-03-28T12:44:24.303Z,7.45
2019-03-28T12:46:56.955Z,8.20
2019-03-28T12:49:30.625Z,8.63
2019-03-28T12:52:03.318Z,8.00
2019-03-28T12:54:35.992Z,6.80
2019-03-28T12:57:08.674Z,11.90
2019-03-28T12:59:41.288Z,10.30
2019-03-28T13:02:27.160Z,8.87
2019-03-28T13:04:48.371Z,7.00
2019-03-28T13:07:21.012Z,8.58
2019-03-28T13:09:53.794Z,9.53
2019-03-28T13:12:26.898Z,7.35
2019-03-28T13:14:59.908Z,7.40
2019-03-28T13:17:32.602Z,6.67
2019-03-28T13:20:05.919Z,8.80
2019-03-28T13:22:38.775Z,7.47
2019-03-28T13:25:11.612Z,7.47
2019-03-28T13:27:44.282Z,6.30
2019-03-28T13:30:18.713Z,6.92
2019-03-28T13:32:51.476Z,7.50
2019-03-28T13:35:24.073Z,7.78
2019-03-28T13:37:56.754Z,5.80
2019-03-28T13:40:29.355Z,5.17
2019-03-28T13:43:02.491Z,5.53
2019-03-28T13:45:35.425Z,4.37
2019-03-28T13:48:08.190Z,5.93
2019-03-28T13:50:40.901Z,4.50
2019-03-28T13:53:13.622Z,4.33
2019-03-28T13:55:46.447Z,4.70
2019-03-28T13:58:19.168Z,6.42
2019-03-28T14:00:54.377Z,4.87
2019-03-28T14:03:26.567Z,4.30
2019-03-28T14:05:59.232Z,5.27
2019-03-28T14:08:31.981Z,4.33
2019-03-28T14:11:04.668Z,3.70
2019-03-28T14:13:37.428Z,3.70
2019-03-28T14:16:11.093Z,2.42
2019-03-28T14:18:43.847Z,2.80
2019-03-28T14:21:16.610Z,4.00
2019-03-28T14:23:49.480Z,2.70
2019-03-28T14:26:22.169Z,3.80
2019-03-28T14:28:54.834Z,2.57
2019-03-28T14:31:27.452Z,3.42
2019-03-28T14:34:00.559Z,8.53
2019-03-28T14:36:33.249Z,3.87
2019-03-28T14:39:08.530Z,3.10
2019-03-28T14:41:41.291Z,2.90
2019-03-28T14:44:13.977Z,2.33
2019-03-28T14:46:46.747Z,3.87
2019-03-28T14:49:19.422Z,3.17
2019-03-28T14:51:52.042Z,2.50
2019-03-28T14:54:24.710Z,3.47
2019-03-28T14:56:58.476Z,4.07
2019-03-28T14:59:33.100Z,1.50
2019-03-28T15:02:06.332Z,2.20
2019-03-28T15:04:39.315Z,1.53
2019-03-28T15:07:12.378Z,2.40
2019-03-28T15:09:45.374Z,1.77
2019-03-28T15:12:18.361Z,3.35
2019-03-28T15:14:51.062Z,3.70
2019-03-28T15:17:23.721Z,1.62
2019-03-28T15:19:56.424Z,1.70
2019-03-28T15:22:29.100Z,2.80
2019-03-28T15:25:01.787Z,3.97
2019-03-28T15:27:34.550Z,3.27
2019-03-28T15:30:08.429Z,1.77
2019-03-28T15:32:41.188Z,1.77
2019-03-28T15:35:13.929Z,1.60
2019-03-28T15:37:47.477Z,1.67
2019-03-28T15:40:20.505Z,1.62
2019-03-28T15:42:53.290Z,2.50
2019-03-28T15:45:26.065Z,2.65
2019-03-28T15:47:58.853Z,2.03
2019-03-28T15:50:31.615Z,1.90
2019-03-28T15:53:04.392Z,1.80
2019-03-28T15:55:37.138Z,2.30
2019-03-28T15:58:22.678Z,2.67
2019-03-28T16:00:45.636Z,4.37
2019-03-28T16:03:18.352Z,1.75
2019-03-28T16:05:58.013Z,2.23
2019-03-28T16:08:25.327Z,2.30
2019-03-28T16:10:58.387Z,1.83
2019-03-28T16:13:31.179Z,3.27
2019-03-28T16:16:03.961Z,3.73
2019-03-28T16:18:36.568Z,3.13
2019-03-28T16:21:09.278Z,3.83
2019-03-28T16:23:42.003Z,2.50
2019-03-28T16:26:14.754Z,3.37
2019-03-28T16:28:48.243Z,3.60
2019-03-28T16:31:21.451Z,5.15
2019-03-28T16:34:06.236Z,2.67
2019-03-28T16:36:28.516Z,3.90
2019-03-28T16:39:01.203Z,2.50
2019-03-28T16:41:35.418Z,2.27
2019-03-28T16:44:09.188Z,2.67
2019-03-28T16:46:41.967Z,1.97
2019-03-28T16:49:14.757Z,2.33
2019-03-28T16:51:47.474Z,2.87
2019-03-28T16:54:20.539Z,3.65
2019-03-28T16:56:53.722Z,3.83
2019-03-28T16:59:26.865Z,5.30
2019-03-28T17:01:59.562Z,5.80
2019-03-28T17:04:33.024Z,3.03
2019-03-28T17:07:05.830Z,5.87
2019-03-28T17:09:40.072Z,4.37
2019-03-28T17:12:12.841Z,3.60
2019-03-28T17:14:46.757Z,5.47
2019-03-28T17:17:19.477Z,3.47
2019-03-28T17:19:52.514Z,3.20
2019-03-28T17:22:26.310Z,3.17
2019-03-28T17:24:59.075Z,4.27
2019-03-28T17:27:31.734Z,4.27
2019-03-28T17:30:07.189Z,5.13
2019-03-28T17:32:39.128Z,4.07
2019-03-28T17:35:13.047Z,4.50
2019-03-28T17:37:46.245Z,3.67
2019-03-28T17:40:20.093Z,3.98
2019-03-28T17:42:52.722Z,4.13
2019-03-28T17:45:26.382Z,4.87
2019-03-28T17:47:59.335Z,5.43
2019-03-28T17:50:32.046Z,3.37
2019-03-28T17:53:04.814Z,3.97
2019-03-28T17:55:37.744Z,5.80
2019-03-28T17:58:10.803Z,5.40
2019-03-28T18:00:46.436Z,6.93
2019-03-28T18:03:30.513Z,4.17
2019-03-28T18:05:58.396Z,5.33
2019-03-28T18:08:29.714Z,7.47
2019-03-28T18:11:03.433Z,6.03
2019-03-28T18:13:36.887Z,7.43
2019-03-28T18:16:11.766Z,6.40
2019-03-28T18:18:44.971Z,6.87
2019-03-28T18:21:18.172Z,5.17
2019-03-28T18:23:52.206Z,5.57
2019-03-28T18:26:25.733Z,5.30
2019-03-28T18:28:58.993Z,5.73
2019-03-28T18:31:32.617Z,7.77
2019-03-28T18:34:06.416Z,5.13
2019-03-28T18:36:40.042Z,6.30
2019-03-28T18:39:13.774Z,6.33
2019-03-28T18:41:47.760Z,5.37
2019-03-28T18:44:21.094Z,6.53
2019-03-28T18:46:54.721Z,5.60
2019-03-28T18:49:28.143Z,7.00
2019-03-28T18:52:01.620Z,8.50
2019-03-28T18:54:35.940Z,4.83
2019-03-28T18:57:09.875Z,4.97
2019-03-28T18:59:43.688Z,4.67
2019-03-28T19:02:17.277Z,4.12
2019-03-28T19:04:50.956Z,5.60
2019-03-28T19:07:24.305Z,7.08
2019-03-28T19:09:57.306Z,6.67
2019-03-28T19:12:30.713Z,5.10
2019-03-28T19:15:04.149Z,7.47
2019-03-28T19:17:37.761Z,5.83
2019-03-28T19:20:12.024Z,6.60
2019-03-28T19:22:45.582Z,5.03
2019-03-28T19:25:18.778Z,6.53
2019-03-28T19:27:52.017Z,6.23
2019-03-28T19:30:36.271Z,7.25
2019-03-28T19:33:09.458Z,6.13
2019-03-28T19:35:43.359Z,5.93
2019-03-28T19:38:17.217Z,5.87
2019-03-28T19:40:50.832Z,6.63
2019-03-28T19:43:25.716Z,5.65
2019-03-28T19:45:59.661Z,7.07
2019-03-28T19:48:33.125Z,5.37
2019-03-28T19:51:07.845Z,5.97
2019-03-28T19:53:41.596Z,6.80
2019-03-28T19:56:15.064Z,5.17
2019-03-28T19:58:48.884Z,4.83
2019-03-28T20:01:22.505Z,9.23
2019-03-28T20:03:55.981Z,8.27
2019-03-28T20:06:29.086Z,6.53
2019-03-28T20:09:15.363Z,5.87
2019-03-28T20:11:37.362Z,6.73
2019-03-28T20:14:11.163Z,9.05
2019-03-28T20:16:44.590Z,6.57
2019-03-28T20:19:18.129Z,7.20
2019-03-28T20:21:51.438Z,5.63
2019-03-28T20:24:25.102Z,6.97
2019-03-28T20:26:58.341Z,6.67
2019-03-28T20:29:33.401Z,7.30
2019-03-28T20:32:08.252Z,7.80
2019-03-28T20:34:41.911Z,6.50
2019-03-28T20:37:15.646Z,6.42
2019-03-28T20:39:49.393Z,6.97
2019-03-28T20:42:23.053Z,8.07
2019-03-28T20:44:56.584Z,6.57
2019-03-28T20:47:30.128Z,7.07
2019-03-28T20:50:05.162Z,6.97
2019-03-28T20:52:38.583Z,7.60
2019-03-28T20:55:12.400Z,6.77
2019-03-28T20:57:45.989Z,8.87
2019-03-28T21:00:45.296Z,7.97
2019-03-28T21:03:18.846Z,6.17
2019-03-28T21:05:52.183Z,6.33
2019-03-28T21:08:25.637Z,5.10
2019-03-28T21:10:59.852Z,6.23
2019-03-28T21:13:33.655Z,4.93
2019-03-28T21:16:07.516Z,9.90
2019-03-28T21:18:41.062Z,6.07
2019-03-28T21:21:14.438Z,7.50
2019-03-28T21:23:49.058Z,6.77
2019-03-28T21:26:22.634Z,7.80
2019-03-28T21:28:56.075Z,7.90
2019-03-28T21:31:29.848Z,7.83
2019-03-28T21:34:03.203Z,9.83
2019-03-28T21:36:37.053Z,6.73
2019-03-28T21:39:11.416Z,8.03
2019-03-28T21:41:45.946Z,7.50
2019-03-28T21:44:20.207Z,11.97
2019-03-28T21:46:53.877Z,10.43
2019-03-28T21:49:27.862Z,7.67
2019-03-28T21:52:01.067Z,8.47
2019-03-28T21:54:34.696Z,8.73
2019-03-28T21:57:08.106Z,9.27
2019-03-28T21:59:41.831Z,8.33
2019-03-28T22:02:14.989Z,8.17
2019-03-28T22:04:48.745Z,8.17
2019-03-28T22:07:22.025Z,9.77
2019-03-28T22:09:56.343Z,6.77
2019-03-28T22:12:29.983Z,7.63
2019-03-28T22:15:04.045Z,7.00
2019-03-28T22:17:37.523Z,8.00
2019-03-28T22:20:11.254Z,9.10
2019-03-28T22:22:45.291Z,7.67
2019-03-28T22:25:18.767Z,9.37
2019-03-28T22:27:53.376Z,7.13
2019-03-28T22:30:26.801Z,6.33
2019-03-28T22:33:00.180Z,6.97
2019-03-28T22:35:33.651Z,9.00
2019-03-28T22:38:07.332Z,7.17
2019-03-28T22:40:43.696Z,9.57
2019-03-28T22:43:16.095Z,7.77
2019-03-28T22:45:50.122Z,8.93
2019-03-28T22:48:23.952Z,9.17
2019-03-28T22:50:57.588Z,9.90
2019-03-28T22:53:30.930Z,8.97
2019-03-28T22:56:04.725Z,7.30
2019-03-28T22:58:37.429Z,10.43
2019-03-28T23:01:10.939Z,11.63
2019-03-28T23:03:44.007Z,8.73
2019-03-28T23:06:16.765Z,10.37
2019-03-28T23:08:49.589Z,12.73
2019-03-28T23:11:22.369Z,10.90
2019-03-28T23:13:55.221Z,9.43
2019-03-28T23:16:28.762Z,8.43
2019-03-28T23:19:02.157Z,8.17
2019-03-28T23:21:35.238Z,9.73
2019-03-28T23:24:07.929Z,7.30
2019-03-28T23:26:40.633Z,10.23
2019-03-28T23:29:13.291Z,9.43
2019-03-28T23:31:46.773Z,9.30
2019-03-28T23:34:20.513Z,9.80
2019-03-28T23:36:53.241Z,9.33
2019-03-28T23:39:25.996Z,9.13
2019-03-28T23:41:58.650Z,8.50
2019-03-28T23:44:31.289Z,8.93
2019-03-28T23:47:04.160Z,10.67
2019-03-28T23:49:38.633Z,11.70
2019-03-28T23:52:12.407Z,9.43
2019-03-28T23:54:46.165Z,9.70
2019-03-28T23:57:18.829Z,9.03
2019-03-28T23:59:51.507Z,9.80
